createdAt,value
2018-03-24T00:01:55.800Z,6.45
2018-03-24T00:04:23.280Z,4.60
2018-03-24T00:06:50.860Z,5.55
2018-03-24T00:09:18.269Z,5.78
2018-03-24T00:11:45.755Z,5.30
2018-03-24T00:14:13.245Z,4.62
2018-03-24T00:16:40.722Z,6.35
2018-03-24T00:19:08.112Z,5.40
2018-03-24T00:21:35.513Z,5.70
2018-03-24T00:24:02.924Z,5.55
2018-03-24T00:26:30.328Z,6.80
2018-03-24T00:28:58.109Z,6.07
2018-03-24T00:31:25.528Z,6.45
2018-03-24T00:33:52.951Z,5.80
2018-03-24T00:36:20.438Z,5.07
2018-03-24T00:38:47.943Z,5.37
2018-03-24T00:41:15.369Z,7.32
2018-03-24T00:43:42.825Z,6.18
2018-03-24T00:46:10.283Z,5.57
2018-03-24T00:48:37.737Z,6.50
2018-03-24T00:51:05.238Z,5.25
2018-03-24T00:53:32.680Z,5.35
2018-03-24T00:56:00.114Z,4.35
2018-03-24T00:58:27.547Z,5.62
2018-03-24T01:00:55.005Z,5.95
2018-03-24T01:03:22.452Z,5.90
2018-03-24T01:05:49.885Z,5.15
2018-03-24T01:08:17.293Z,6.25
2018-03-24T01:10:44.754Z,5.93
2018-03-24T01:13:12.211Z,5.70
2018-03-24T01:15:39.690Z,5.68
2018-03-24T01:18:07.110Z,6.47
2018-03-24T01:20:34.564Z,5.28
2018-03-24T01:23:01.951Z,5.28
2018-03-24T01:25:29.385Z,5.97
2018-03-24T01:27:56.792Z,5.28
2018-03-24T01:30:24.261Z,5.95
2018-03-24T01:32:51.677Z,6.22
2018-03-24T01:35:19.163Z,5.82
2018-03-24T01:37:46.921Z,7.30
2018-03-24T01:40:15.081Z,7.05
2018-03-24T01:42:42.492Z,7.70
2018-03-24T01:45:09.947Z,7.72
2018-03-24T01:47:37.368Z,5.70
2018-03-24T01:50:04.822Z,6.25
2018-03-24T01:52:32.242Z,5.32
2018-03-24T01:55:00.204Z,5.00
2018-03-24T01:57:28.483Z,4.65
2018-03-24T01:59:56.624Z,5.35
2018-03-24T02:02:24.045Z,6.50
2018-03-24T02:04:51.564Z,5.85
2018-03-24T02:07:19.019Z,5.95
2018-03-24T02:09:46.476Z,4.95
2018-03-24T02:12:13.942Z,5.93
2018-03-24T02:14:41.359Z,5.85
2018-03-24T02:17:08.799Z,6.65
2018-03-24T02:19:36.242Z,6.60
2018-03-24T02:22:03.674Z,5.82
2018-03-24T02:24:31.205Z,4.78
2018-03-24T02:26:58.694Z,6.80
2018-03-24T02:29:26.154Z,4.70
2018-03-24T02:31:53.605Z,5.68
2018-03-24T02:34:21.040Z,7.90
2018-03-24T02:36:48.538Z,5.68
2018-03-24T02:39:15.928Z,5.47
2018-03-24T02:41:43.384Z,5.47
2018-03-24T02:44:10.790Z,5.00
2018-03-24T02:46:38.263Z,7.32
2018-03-24T02:49:05.689Z,4.50
2018-03-24T02:51:33.143Z,6.07
2018-03-24T02:54:00.561Z,5.10
2018-03-24T02:56:27.985Z,6.37
2018-03-24T02:58:55.432Z,6.10
2018-03-24T03:01:22.851Z,5.93
2018-03-24T03:03:50.290Z,6.62
2018-03-24T03:06:17.743Z,5.55
2018-03-24T03:08:45.156Z,6.50
2018-03-24T03:11:12.568Z,6.10
2018-03-24T03:13:39.997Z,4.80
2018-03-24T03:16:07.418Z,5.47
2018-03-24T03:18:34.804Z,5.40
2018-03-24T03:21:02.259Z,5.15
2018-03-24T03:23:29.669Z,4.32
2018-03-24T03:25:57.130Z,4.93
2018-03-24T03:28:24.557Z,4.82
2018-03-24T03:33:48.033Z,12.35
2018-03-24T03:36:15.490Z,5.95
2018-03-24T03:38:42.921Z,5.68
2018-03-24T03:41:10.349Z,8.10
2018-03-24T03:43:37.825Z,5.80
2018-03-24T03:46:05.223Z,5.85
2018-03-24T03:48:32.619Z,6.20
2018-03-24T03:51:00.221Z,6.07
2018-03-24T03:53:27.649Z,6.40
2018-03-24T03:55:55.298Z,6.82
2018-03-24T03:58:22.692Z,8.00
2018-03-24T04:00:50.166Z,7.65
2018-03-24T04:03:17.596Z,6.28
2018-03-24T04:05:45.360Z,6.00
2018-03-24T04:08:12.897Z,6.93
2018-03-24T04:10:40.484Z,6.28
2018-03-24T04:13:07.873Z,9.15
2018-03-24T04:15:36.160Z,6.75
2018-03-24T04:18:03.824Z,6.35
2018-03-24T04:20:31.280Z,6.70
2018-03-24T04:22:58.702Z,8.05
2018-03-24T04:25:26.202Z,8.63
2018-03-24T04:27:53.635Z,8.13
2018-03-24T04:30:21.020Z,6.82
2018-03-24T04:32:48.971Z,6.50
2018-03-24T04:35:16.409Z,5.35
2018-03-24T04:37:43.830Z,6.15
2018-03-24T04:40:11.250Z,6.10
2018-03-24T04:42:38.674Z,7.05
2018-03-24T04:45:06.159Z,6.10
2018-03-24T04:47:33.574Z,7.45
2018-03-24T04:50:01.225Z,5.35
2018-03-24T04:52:28.636Z,6.32
2018-03-24T04:54:56.061Z,5.65
2018-03-24T04:57:23.984Z,4.82
2018-03-24T04:59:51.377Z,4.60
2018-03-24T05:02:18.813Z,5.30
2018-03-24T05:04:46.238Z,6.18
2018-03-24T05:07:13.837Z,4.80
2018-03-24T05:09:41.301Z,5.70
2018-03-24T05:12:08.748Z,7.37
2018-03-24T05:14:36.189Z,5.22
2018-03-24T05:17:03.680Z,6.43
2018-03-24T05:19:31.123Z,5.20
2018-03-24T05:21:58.544Z,6.07
2018-03-24T05:24:26.031Z,5.65
2018-03-24T05:26:53.440Z,4.95
2018-03-24T05:29:20.881Z,6.95
2018-03-24T05:31:48.413Z,5.00
2018-03-24T05:34:15.810Z,4.75
2018-03-24T05:36:43.374Z,4.10
2018-03-24T05:39:10.984Z,5.20
2018-03-24T05:41:38.735Z,6.32
2018-03-24T05:44:06.341Z,5.03
2018-03-24T05:46:33.830Z,6.15
2018-03-24T05:49:01.287Z,6.45
2018-03-24T05:51:28.674Z,5.37
2018-03-24T05:53:56.084Z,5.65
2018-03-24T05:56:23.646Z,4.87
2018-03-24T05:58:51.028Z,6.55
2018-03-24T06:01:18.505Z,5.65
2018-03-24T06:03:46.020Z,5.68
2018-03-24T06:06:13.486Z,6.00
2018-03-24T06:08:40.886Z,4.65
2018-03-24T06:11:08.346Z,5.10
2018-03-24T06:13:35.810Z,5.32
2018-03-24T06:16:03.234Z,5.90
2018-03-24T06:18:30.652Z,6.80
2018-03-24T06:20:58.095Z,5.85
2018-03-24T06:23:25.505Z,5.93
2018-03-24T06:25:52.938Z,7.35
2018-03-24T06:28:20.398Z,7.57
2018-03-24T06:30:50.160Z,7.20
2018-03-24T06:33:17.544Z,5.90
2018-03-24T06:35:45.007Z,5.93
2018-03-24T06:38:12.442Z,5.43
2018-03-24T06:40:39.922Z,6.60
2018-03-24T06:43:07.538Z,5.80
2018-03-24T06:45:34.966Z,6.20
2018-03-24T06:48:02.430Z,6.40
2018-03-24T06:50:29.882Z,7.60
2018-03-24T06:52:57.282Z,6.53
2018-03-24T06:55:24.829Z,7.00
2018-03-24T06:57:52.246Z,8.05
2018-03-24T07:00:19.777Z,5.65
2018-03-24T07:02:47.230Z,7.85
2018-03-24T07:05:14.860Z,6.53
2018-03-24T07:07:42.279Z,7.05
2018-03-24T07:10:09.701Z,7.35
2018-03-24T07:12:38.031Z,6.75
2018-03-24T07:15:05.444Z,7.05
2018-03-24T07:17:32.869Z,7.53
2018-03-24T07:20:00.442Z,8.48
2018-03-24T07:22:27.883Z,9.55
2018-03-24T07:24:55.317Z,8.75
2018-03-24T07:27:22.744Z,6.45
2018-03-24T07:29:50.169Z,7.12
2018-03-24T07:32:17.606Z,9.35
2018-03-24T07:34:45.021Z,8.68
2018-03-24T07:37:12.454Z,9.05
2018-03-24T07:39:40.570Z,9.93
2018-03-24T07:42:08.026Z,9.45
2018-03-24T07:44:35.469Z,7.62
2018-03-24T07:47:03.061Z,8.13
2018-03-24T07:49:30.504Z,8.43
2018-03-24T07:51:57.937Z,10.52
2018-03-24T07:54:25.344Z,7.65
2018-03-24T07:56:52.786Z,9.70
2018-03-24T07:59:20.521Z,9.73
2018-03-24T08:01:47.942Z,9.85
2018-03-24T08:04:15.422Z,9.10
2018-03-24T08:06:42.909Z,8.60
2018-03-24T08:09:10.370Z,10.07
2018-03-24T08:11:37.805Z,9.45
2018-03-24T08:14:05.304Z,9.50
2018-03-24T08:16:32.736Z,10.98
2018-03-24T08:19:00.198Z,11.40
2018-03-24T08:21:27.645Z,9.57
2018-03-24T08:23:55.042Z,7.82
2018-03-24T08:26:22.481Z,8.95
2018-03-24T08:28:50.256Z,9.30
2018-03-24T08:31:17.709Z,8.88
2018-03-24T08:33:45.118Z,8.77
2018-03-24T08:36:12.544Z,10.27
2018-03-24T08:38:40.015Z,11.60
2018-03-24T08:41:07.441Z,8.07
2018-03-24T08:43:35.514Z,10.20
2018-03-24T08:46:02.958Z,11.05
2018-03-24T08:48:30.410Z,11.50
2018-03-24T08:50:57.804Z,9.68
2018-03-24T08:53:25.208Z,9.55
2018-03-24T08:55:52.661Z,12.30
2018-03-24T08:58:20.126Z,9.73
2018-03-24T09:00:47.574Z,10.38
2018-03-24T09:03:14.986Z,10.07
2018-03-24T09:05:42.405Z,10.25
2018-03-24T09:08:10.779Z,10.48
2018-03-24T09:10:38.239Z,9.23
2018-03-24T09:13:05.671Z,10.70
2018-03-24T09:15:33.210Z,9.05
2018-03-24T09:18:00.618Z,12.05
2018-03-24T09:20:28.055Z,9.98
2018-03-24T09:22:55.495Z,9.20
2018-03-24T09:25:22.957Z,9.93
2018-03-24T09:27:50.405Z,11.57
2018-03-24T09:30:17.838Z,9.68
2018-03-24T09:32:45.298Z,8.48
2018-03-24T09:35:12.828Z,8.63
2018-03-24T09:37:40.290Z,10.15
2018-03-24T09:40:07.806Z,10.57
2018-03-24T09:42:35.310Z,11.68
2018-03-24T09:45:03.784Z,9.13
2018-03-24T09:47:31.219Z,10.27
2018-03-24T09:49:58.591Z,9.15
2018-03-24T09:52:26.457Z,8.90
2018-03-24T09:54:54.461Z,9.70
2018-03-24T09:57:21.909Z,12.32
2018-03-24T09:59:49.369Z,9.60
2018-03-24T10:02:16.800Z,9.13
2018-03-24T10:04:44.353Z,8.73
2018-03-24T10:07:11.846Z,8.45
2018-03-24T10:09:39.484Z,9.63
2018-03-24T10:12:06.916Z,8.93
2018-03-24T10:14:34.350Z,7.30
2018-03-24T10:17:01.823Z,7.43
2018-03-24T10:19:29.245Z,7.85
2018-03-24T10:24:55.128Z,12.10
2018-03-24T10:27:22.593Z,8.65
2018-03-24T10:29:50.025Z,8.77
2018-03-24T10:32:17.479Z,9.93
2018-03-24T10:34:44.914Z,8.77
2018-03-24T10:37:12.348Z,9.40
2018-03-24T10:39:39.830Z,6.68
2018-03-24T10:42:07.271Z,6.95
2018-03-24T10:47:08.469Z,7.10
2018-03-24T10:49:35.869Z,8.52
2018-03-24T10:52:03.319Z,7.93
2018-03-24T10:54:30.711Z,10.48
2018-03-24T10:56:58.185Z,8.60
2018-03-24T10:59:25.593Z,10.68
2018-03-24T11:01:53.051Z,8.10
2018-03-24T11:04:20.479Z,9.63
2018-03-24T11:06:47.925Z,8.40
2018-03-24T11:09:15.331Z,10.70
2018-03-24T11:11:42.769Z,7.18
2018-03-24T11:14:10.196Z,8.27
2018-03-24T11:16:37.588Z,8.73
2018-03-24T11:19:05.021Z,6.95
2018-03-24T11:21:32.513Z,8.13
2018-03-24T11:23:59.937Z,8.65
2018-03-24T11:26:27.549Z,8.30
2018-03-24T11:28:54.974Z,9.55
2018-03-24T11:31:22.432Z,10.57
2018-03-24T11:33:50.108Z,7.40
2018-03-24T11:36:18.378Z,10.52
2018-03-24T11:38:45.855Z,8.95
2018-03-24T11:41:13.290Z,10.45
2018-03-24T11:43:40.690Z,10.80
2018-03-24T11:46:08.504Z,9.43
2018-03-24T11:48:36.091Z,8.05
2018-03-24T11:51:03.534Z,9.10
2018-03-24T11:53:42.867Z,9.52
2018-03-24T11:56:10.440Z,10.43
2018-03-24T11:58:37.863Z,10.20
2018-03-24T12:01:05.357Z,9.30
2018-03-24T12:03:32.774Z,8.70
2018-03-24T12:06:00.258Z,11.45
2018-03-24T12:08:27.726Z,8.35
2018-03-24T12:10:55.152Z,8.13
2018-03-24T12:13:22.560Z,7.43
2018-03-24T12:15:49.997Z,7.30
2018-03-24T12:18:17.428Z,9.23
2018-03-24T12:20:44.891Z,8.48
2018-03-24T12:23:12.297Z,7.10
2018-03-24T12:25:39.732Z,5.90
2018-03-24T12:28:07.169Z,6.93
2018-03-24T12:30:34.596Z,7.78
2018-03-24T12:33:02.027Z,7.68
2018-03-24T12:35:29.381Z,8.32
2018-03-24T12:37:56.781Z,7.62
2018-03-24T12:40:24.409Z,6.53
2018-03-24T12:42:51.809Z,6.20
2018-03-24T12:45:19.244Z,8.00
2018-03-24T12:47:46.681Z,8.43
2018-03-24T12:50:14.113Z,7.50
2018-03-24T12:52:41.636Z,8.27
2018-03-24T12:55:09.109Z,7.25
2018-03-24T12:57:36.584Z,7.43
2018-03-24T13:00:04.024Z,7.32
2018-03-24T13:02:31.486Z,8.77
2018-03-24T13:04:58.901Z,9.20
2018-03-24T13:07:26.366Z,8.10
2018-03-24T13:09:53.857Z,7.95
2018-03-24T13:12:21.393Z,7.90
2018-03-24T13:14:48.849Z,7.32
2018-03-24T13:17:16.686Z,7.90
2018-03-24T13:19:44.122Z,8.65
2018-03-24T13:22:11.496Z,7.62
2018-03-24T13:24:38.890Z,8.35
2018-03-24T13:27:06.365Z,7.95
2018-03-24T13:29:33.834Z,9.45
2018-03-24T13:32:01.253Z,7.85
2018-03-24T13:34:28.730Z,9.88
2018-03-24T13:36:56.176Z,9.02
2018-03-24T13:39:23.730Z,8.27
2018-03-24T13:41:51.207Z,9.10
2018-03-24T13:44:19.035Z,8.07
2018-03-24T13:46:46.490Z,8.80
2018-03-24T13:49:13.921Z,9.95
2018-03-24T13:51:41.322Z,7.10
2018-03-24T13:54:09.262Z,8.70
2018-03-24T13:56:36.742Z,7.37
2018-03-24T13:59:04.171Z,7.62
2018-03-24T14:01:31.816Z,7.93
2018-03-24T14:03:59.223Z,8.82
2018-03-24T14:06:26.649Z,7.37
2018-03-24T14:08:54.085Z,8.35
2018-03-24T14:11:21.599Z,7.43
2018-03-24T14:13:49.061Z,5.95
2018-03-24T14:16:16.554Z,8.10
2018-03-24T14:18:44.087Z,7.95
2018-03-24T14:21:11.965Z,6.57
2018-03-24T14:23:39.395Z,6.22
2018-03-24T14:26:06.816Z,7.43
2018-03-24T14:28:34.328Z,6.97
2018-03-24T14:31:01.790Z,7.28
2018-03-24T14:33:29.213Z,6.87
2018-03-24T14:35:56.626Z,8.75
2018-03-24T14:38:24.092Z,6.75
2018-03-24T14:40:51.922Z,7.03
2018-03-24T14:43:19.434Z,7.47
2018-03-24T14:45:47.070Z,7.53
2018-03-24T14:48:14.452Z,6.95
2018-03-24T14:50:41.894Z,7.85
2018-03-24T14:53:09.320Z,7.70
2018-03-24T14:55:36.775Z,7.12
2018-03-24T14:58:04.180Z,8.68
2018-03-24T15:00:32.464Z,9.05
2018-03-24T15:03:00.196Z,7.07
2018-03-24T15:05:27.606Z,7.18
2018-03-24T15:07:55.007Z,5.78
2018-03-24T15:10:22.452Z,6.57
2018-03-24T15:12:49.865Z,8.85
2018-03-24T15:15:17.262Z,7.40
2018-03-24T15:17:44.752Z,6.50
2018-03-24T15:20:12.172Z,6.95
2018-03-24T15:22:39.659Z,7.75
2018-03-24T15:25:07.446Z,6.55
2018-03-24T15:27:34.934Z,7.43
2018-03-24T15:30:14.061Z,8.70
2018-03-24T15:32:52.320Z,6.45
2018-03-24T15:35:34.348Z,6.95
2018-03-24T15:38:01.818Z,8.02
2018-03-24T15:40:29.252Z,10.18
2018-03-24T15:42:56.671Z,7.65
2018-03-24T15:45:24.078Z,7.65
2018-03-24T15:47:51.616Z,9.50
2018-03-24T15:50:19.122Z,9.15
2018-03-24T15:52:46.574Z,9.52
2018-03-24T15:55:14.028Z,10.32
2018-03-24T15:57:41.569Z,7.43
2018-03-24T16:00:08.961Z,6.97
2018-03-24T16:02:36.366Z,7.37
2018-03-24T16:05:03.789Z,8.55
2018-03-24T16:07:31.591Z,9.57
2018-03-24T16:09:59.051Z,8.38
2018-03-24T16:12:26.532Z,8.63
2018-03-24T16:14:53.962Z,9.13
2018-03-24T16:17:21.556Z,7.85
2018-03-24T16:19:48.990Z,9.00
2018-03-24T16:22:16.471Z,6.82
2018-03-24T16:24:43.968Z,8.68
2018-03-24T16:27:11.499Z,8.93
2018-03-24T16:29:38.937Z,10.55
2018-03-24T16:32:06.607Z,8.35
2018-03-24T16:34:34.349Z,8.50
2018-03-24T16:37:01.746Z,9.10
2018-03-24T16:39:29.226Z,6.72
2018-03-24T16:41:56.639Z,8.80
2018-03-24T16:44:24.065Z,8.35
2018-03-24T16:46:51.515Z,7.03
2018-03-24T16:49:18.959Z,8.75
2018-03-24T16:51:46.441Z,9.48
2018-03-24T16:54:13.872Z,8.55
2018-03-24T16:56:41.288Z,10.00
2018-03-24T16:59:08.730Z,9.35
2018-03-24T17:01:36.296Z,8.15
2018-03-24T17:04:03.725Z,8.02
2018-03-24T17:06:31.220Z,6.93
2018-03-24T17:08:58.774Z,7.03
2018-03-24T17:11:26.229Z,7.40
2018-03-24T17:13:53.694Z,14.63
2018-03-24T17:16:21.121Z,9.95
2018-03-24T17:18:48.548Z,6.75
2018-03-24T17:21:16.001Z,7.18
2018-03-24T17:23:43.481Z,6.57
2018-03-24T17:26:10.883Z,7.90
2018-03-24T17:28:38.277Z,5.45
2018-03-24T17:31:05.679Z,8.75
2018-03-24T17:33:33.075Z,6.28
2018-03-24T17:36:01.147Z,7.10
2018-03-24T17:38:28.570Z,5.90
2018-03-24T17:40:56.084Z,7.62
2018-03-24T17:43:23.519Z,7.40
2018-03-24T17:45:51.043Z,7.05
2018-03-24T17:48:18.586Z,8.50
2018-03-24T17:50:45.972Z,8.00
2018-03-24T17:53:13.426Z,6.43
2018-03-24T17:55:40.900Z,7.10
2018-03-24T17:58:08.328Z,6.62
2018-03-24T18:00:35.782Z,7.12
2018-03-24T18:03:03.235Z,7.37
2018-03-24T18:05:30.664Z,7.95
2018-03-24T18:07:58.165Z,7.12
2018-03-24T18:10:25.728Z,6.87
2018-03-24T18:12:53.282Z,6.32
2018-03-24T18:15:20.840Z,8.98
2018-03-24T18:17:48.232Z,6.25
2018-03-24T18:20:15.656Z,9.10
2018-03-24T18:22:43.088Z,7.40
2018-03-24T18:25:10.476Z,6.45
2018-03-24T18:27:38.355Z,5.87
2018-03-24T18:30:05.829Z,7.40
2018-03-24T18:32:33.250Z,8.98
2018-03-24T18:35:00.703Z,8.90
2018-03-24T18:37:28.125Z,9.48
2018-03-24T18:39:56.371Z,8.60
2018-03-24T18:42:23.779Z,6.95
2018-03-24T18:44:51.193Z,7.55
2018-03-24T18:47:18.698Z,8.15
2018-03-24T18:49:46.131Z,6.72
2018-03-24T18:52:13.557Z,7.07
2018-03-24T18:54:41.023Z,7.50
2018-03-24T18:57:08.566Z,8.05
2018-03-24T18:59:35.974Z,9.63
2018-03-24T19:02:03.430Z,7.37
2018-03-24T19:04:30.844Z,8.80
2018-03-24T19:06:58.363Z,8.95
2018-03-24T19:09:25.840Z,8.05
2018-03-24T19:11:53.248Z,12.00
2018-03-24T19:14:20.705Z,9.27
2018-03-24T19:16:48.134Z,12.57
2018-03-24T19:19:15.573Z,8.55
2018-03-24T19:21:42.997Z,7.20
2018-03-24T19:24:10.488Z,8.45
2018-03-24T19:26:37.931Z,8.10
2018-03-24T19:29:05.357Z,9.18
2018-03-24T19:31:32.870Z,10.45
2018-03-24T19:34:00.278Z,10.18
2018-03-24T19:36:27.756Z,11.43
2018-03-24T19:38:55.864Z,6.12
2018-03-24T19:41:23.331Z,6.25
2018-03-24T19:43:50.904Z,7.70
2018-03-24T19:46:18.520Z,7.57
2018-03-24T19:48:45.990Z,9.35
2018-03-24T19:51:13.448Z,10.85
2018-03-24T19:53:40.910Z,11.48
2018-03-24T19:56:08.358Z,9.80
2018-03-24T19:58:35.880Z,9.40
2018-03-24T20:01:03.349Z,11.73
2018-03-24T20:03:30.751Z,12.00
2018-03-24T20:05:58.205Z,9.38
2018-03-24T20:08:25.649Z,10.75
2018-03-24T20:10:53.272Z,9.95
2018-03-24T20:13:20.714Z,7.80
2018-03-24T20:15:48.468Z,15.27
2018-03-24T20:18:16.297Z,11.30
2018-03-24T20:20:43.737Z,12.25
2018-03-24T20:23:11.144Z,9.50
2018-03-24T20:25:38.620Z,8.32
2018-03-24T20:28:06.032Z,10.23
2018-03-24T20:30:33.479Z,13.18
2018-03-24T20:33:01.015Z,12.00
2018-03-24T20:35:28.423Z,6.93
2018-03-24T20:37:56.010Z,15.30
2018-03-24T20:40:23.434Z,11.43
2018-03-24T20:42:50.918Z,11.63
2018-03-24T20:45:18.391Z,8.95
2018-03-24T20:47:45.989Z,10.18
2018-03-24T20:50:13.344Z,11.05
2018-03-24T20:52:40.763Z,8.60
2018-03-24T20:55:08.218Z,10.95
2018-03-24T20:57:35.788Z,9.52
2018-03-24T21:00:03.241Z,8.95
2018-03-24T21:02:30.911Z,10.30
2018-03-24T21:04:58.363Z,11.45
2018-03-24T21:07:25.755Z,10.23
2018-03-24T21:09:53.206Z,9.30
2018-03-24T21:12:20.655Z,10.43
2018-03-24T21:14:48.101Z,10.25
2018-03-24T21:17:15.541Z,7.53
2018-03-24T21:19:43.108Z,8.50
2018-03-24T21:22:10.564Z,9.50
2018-03-24T21:24:37.984Z,9.38
2018-03-24T21:27:05.479Z,8.98
2018-03-24T21:29:32.870Z,7.75
2018-03-24T21:32:00.327Z,10.63
2018-03-24T21:34:27.804Z,8.27
2018-03-24T21:36:55.243Z,8.30
2018-03-24T21:39:22.671Z,11.07
2018-03-24T21:41:50.104Z,8.48
2018-03-24T21:44:17.525Z,7.45
2018-03-24T21:46:44.963Z,6.78
2018-03-24T21:49:12.367Z,9.70
2018-03-24T21:51:40.517Z,9.35
2018-03-24T21:54:07.891Z,7.25
2018-03-24T21:56:35.287Z,7.62
2018-03-24T21:59:02.754Z,9.80
2018-03-24T22:01:30.290Z,8.60
2018-03-24T22:03:57.743Z,10.18
2018-03-24T22:06:25.138Z,8.95
2018-03-24T22:08:52.574Z,8.98
2018-03-24T22:11:20.001Z,8.13
2018-03-24T22:13:47.389Z,7.93
2018-03-24T22:16:14.837Z,8.95
2018-03-24T22:18:42.325Z,7.72
2018-03-24T22:21:09.747Z,7.68
2018-03-24T22:23:37.152Z,9.95
2018-03-24T22:26:04.585Z,7.65
2018-03-24T22:28:31.972Z,9.20
2018-03-24T22:30:59.385Z,10.02
2018-03-24T22:33:26.788Z,8.75
2018-03-24T22:35:54.232Z,10.23
2018-03-24T22:38:21.654Z,8.50
2018-03-24T22:40:49.081Z,8.77
2018-03-24T22:43:16.558Z,8.10
2018-03-24T22:45:43.985Z,10.77
2018-03-24T22:48:11.406Z,8.75
2018-03-24T22:50:38.829Z,9.40
2018-03-24T22:53:06.314Z,8.45
2018-03-24T22:55:33.810Z,8.50
2018-03-24T22:58:01.258Z,9.45
2018-03-24T23:00:28.720Z,9.85
2018-03-24T23:02:56.211Z,9.13
2018-03-24T23:05:23.682Z,7.75
2018-03-24T23:07:51.098Z,9.68
2018-03-24T23:10:18.576Z,9.70
2018-03-24T23:12:46.042Z,8.45
2018-03-24T23:15:13.513Z,9.77
2018-03-24T23:17:41.063Z,8.52
2018-03-24T23:20:08.510Z,7.93
2018-03-24T23:22:35.928Z,8.43
2018-03-24T23:25:03.359Z,10.40
2018-03-24T23:27:30.746Z,8.85
2018-03-24T23:29:58.338Z,9.05
2018-03-24T23:32:25.756Z,7.70
2018-03-24T23:34:53.144Z,9.90
2018-03-24T23:37:20.593Z,8.27
2018-03-24T23:39:47.982Z,9.73
2018-03-24T23:42:15.488Z,9.40
2018-03-24T23:44:43.085Z,7.53
2018-03-24T23:47:10.551Z,8.57
2018-03-24T23:49:37.936Z,7.90
2018-03-24T23:52:05.373Z,7.68
2018-03-24T23:54:32.835Z,7.93
2018-03-24T23:57:00.265Z,7.40
2018-03-24T23:59:27.853Z,8.25
